sensor_id;sensor_type;location;lat;lon;timestamp;P1;durP1;ratioP1;P2;durP2;ratioP2
23720;SDS011;42950;52.134;5.578;2022-08-21T00:01:15;8.60;;;5.13;;
23720;SDS011;42950;52.134;5.578;2022-08-21T00:03:42;11.52;;;5.25;;
23720;SDS011;42950;52.134;5.578;2022-08-21T00:06:08;8.68;;;5.57;;
23720;SDS011;42950;52.134;5.578;2022-08-21T00:08:34;8.35;;;5.47;;
23720;SDS011;42950;52.134;5.578;2022-08-21T00:11:00;7.22;;;5.60;;
23720;SDS011;42950;52.134;5.578;2022-08-21T00:13:26;7.80;;;5.30;;
23720;SDS011;42950;52.134;5.578;2022-08-21T00:15:52;8.00;;;5.75;;
23720;SDS011;42950;52.134;5.578;2022-08-21T00:18:17;7.38;;;5.00;;
23720;SDS011;42950;52.134;5.578;2022-08-21T00:20:44;7.72;;;6.03;;
23720;SDS011;42950;52.134;5.578;2022-08-21T00:23:10;11.63;;;6.35;;
23720;SDS011;42950;52.134;5.578;2022-08-21T00:25:36;8.68;;;5.60;;
23720;SDS011;42950;52.134;5.578;2022-08-21T00:28:02;12.23;;;6.00;;
23720;SDS011;42950;52.134;5.578;2022-08-21T00:30:30;10.18;;;5.50;;
23720;SDS011;42950;52.134;5.578;2022-08-21T00:32:56;7.57;;;5.55;;
23720;SDS011;42950;52.134;5.578;2022-08-21T00:35:24;6.38;;;5.22;;
23720;SDS011;42950;52.134;5.578;2022-08-21T00:37:52;8.82;;;5.45;;
23720;SDS011;42950;52.134;5.578;2022-08-21T00:40:20;7.95;;;5.40;;
23720;SDS011;42950;52.134;5.578;2022-08-21T00:42:48;9.85;;;5.25;;
23720;SDS011;42950;52.134;5.578;2022-08-21T00:45:15;9.73;;;5.85;;
23720;SDS011;42950;52.134;5.578;2022-08-21T00:47:40;8.02;;;4.97;;
23720;SDS011;42950;52.134;5.578;2022-08-21T00:50:07;9.20;;;5.25;;
23720;SDS011;42950;52.134;5.578;2022-08-21T00:52:34;8.02;;;5.35;;
23720;SDS011;42950;52.134;5.578;2022-08-21T00:55:02;9.23;;;5.38;;
23720;SDS011;42950;52.134;5.578;2022-08-21T00:57:32;8.93;;;5.50;;
23720;SDS011;42950;52.134;5.578;2022-08-21T01:00:04;7.10;;;5.40;;
23720;SDS011;42950;52.134;5.578;2022-08-21T01:02:32;8.20;;;5.53;;
23720;SDS011;42950;52.134;5.578;2022-08-21T01:04:57;7.60;;;5.32;;
23720;SDS011;42950;52.134;5.578;2022-08-21T01:07:23;11.73;;;5.57;;
23720;SDS011;42950;52.134;5.578;2022-08-21T01:09:50;10.18;;;5.70;;
23720;SDS011;42950;52.134;5.578;2022-08-21T01:12:16;8.10;;;5.30;;
23720;SDS011;42950;52.134;5.578;2022-08-21T01:14:42;6.70;;;5.13;;
23720;SDS011;42950;52.134;5.578;2022-08-21T01:17:10;8.75;;;5.65;;
23720;SDS011;42950;52.134;5.578;2022-08-21T01:19:37;8.75;;;5.75;;
23720;SDS011;42950;52.134;5.578;2022-08-21T01:22:03;8.43;;;5.72;;
23720;SDS011;42950;52.134;5.578;2022-08-21T01:24:29;10.48;;;6.07;;
23720;SDS011;42950;52.134;5.578;2022-08-21T01:26:56;10.52;;;6.13;;
23720;SDS011;42950;52.134;5.578;2022-08-21T01:32:16;8.18;;;5.63;;
23720;SDS011;42950;52.134;5.578;2022-08-21T01:34:44;10.85;;;6.55;;
23720;SDS011;42950;52.134;5.578;2022-08-21T01:37:11;10.88;;;6.13;;
23720;SDS011;42950;52.134;5.578;2022-08-21T01:39:38;9.80;;;5.70;;
23720;SDS011;42950;52.134;5.578;2022-08-21T01:42:04;7.65;;;6.50;;
23720;SDS011;42950;52.134;5.578;2022-08-21T01:44:30;7.70;;;5.90;;
23720;SDS011;42950;52.134;5.578;2022-08-21T01:46:57;9.35;;;6.05;;
23720;SDS011;42950;52.134;5.578;2022-08-21T01:49:25;12.95;;;6.60;;
23720;SDS011;42950;52.134;5.578;2022-08-21T01:51:51;8.13;;;6.43;;
23720;SDS011;42950;52.134;5.578;2022-08-21T01:54:17;12.00;;;6.28;;
23720;SDS011;42950;52.134;5.578;2022-08-21T01:56:45;13.35;;;7.03;;
23720;SDS011;42950;52.134;5.578;2022-08-21T01:59:13;12.13;;;7.20;;
23720;SDS011;42950;52.134;5.578;2022-08-21T02:01:39;8.90;;;6.30;;
23720;SDS011;42950;52.134;5.578;2022-08-21T02:04:06;8.00;;;6.25;;
23720;SDS011;42950;52.134;5.578;2022-08-21T02:06:33;9.55;;;6.65;;
23720;SDS011;42950;52.134;5.578;2022-08-21T02:08:59;13.23;;;7.63;;
23720;SDS011;42950;52.134;5.578;2022-08-21T02:11:26;14.27;;;7.15;;
23720;SDS011;42950;52.134;5.578;2022-08-21T02:13:51;12.18;;;7.18;;
23720;SDS011;42950;52.134;5.578;2022-08-21T02:16:17;10.50;;;6.95;;
23720;SDS011;42950;52.134;5.578;2022-08-21T02:18:42;11.85;;;6.90;;
23720;SDS011;42950;52.134;5.578;2022-08-21T02:21:08;9.23;;;6.55;;
23720;SDS011;42950;52.134;5.578;2022-08-21T02:23:34;9.38;;;7.10;;
23720;SDS011;42950;52.134;5.578;2022-08-21T02:26:01;10.23;;;6.57;;
23720;SDS011;42950;52.134;5.578;2022-08-21T02:28:28;9.13;;;6.63;;
23720;SDS011;42950;52.134;5.578;2022-08-21T02:30:54;8.00;;;7.00;;
23720;SDS011;42950;52.134;5.578;2022-08-21T02:33:20;9.48;;;7.28;;
23720;SDS011;42950;52.134;5.578;2022-08-21T02:35:47;10.50;;;7.07;;
23720;SDS011;42950;52.134;5.578;2022-08-21T02:38:15;13.55;;;7.13;;
23720;SDS011;42950;52.134;5.578;2022-08-21T02:40:44;8.65;;;6.90;;
23720;SDS011;42950;52.134;5.578;2022-08-21T02:43:11;6.97;;;6.20;;
23720;SDS011;42950;52.134;5.578;2022-08-21T02:45:38;9.73;;;6.70;;
23720;SDS011;42950;52.134;5.578;2022-08-21T02:48:06;7.50;;;6.10;;
23720;SDS011;42950;52.134;5.578;2022-08-21T02:50:35;8.32;;;6.45;;
23720;SDS011;42950;52.134;5.578;2022-08-21T02:53:03;8.27;;;6.30;;
23720;SDS011;42950;52.134;5.578;2022-08-21T02:55:32;7.47;;;6.32;;
23720;SDS011;42950;52.134;5.578;2022-08-21T02:57:59;7.78;;;6.30;;
23720;SDS011;42950;52.134;5.578;2022-08-21T03:00:26;8.02;;;6.20;;
23720;SDS011;42950;52.134;5.578;2022-08-21T03:02:53;8.20;;;6.95;;
23720;SDS011;42950;52.134;5.578;2022-08-21T03:05:21;8.48;;;6.60;;
23720;SDS011;42950;52.134;5.578;2022-08-21T03:07:47;10.68;;;6.25;;
23720;SDS011;42950;52.134;5.578;2022-08-21T03:10:14;8.35;;;7.13;;
23720;SDS011;42950;52.134;5.578;2022-08-21T03:12:40;11.15;;;6.93;;
23720;SDS011;42950;52.134;5.578;2022-08-21T03:15:07;12.32;;;7.43;;
23720;SDS011;42950;52.134;5.578;2022-08-21T03:17:35;8.68;;;6.30;;
23720;SDS011;42950;52.134;5.578;2022-08-21T03:20:01;9.95;;;6.18;;
23720;SDS011;42950;52.134;5.578;2022-08-21T03:22:28;9.05;;;6.43;;
23720;SDS011;42950;52.134;5.578;2022-08-21T03:24:54;9.05;;;6.20;;
23720;SDS011;42950;52.134;5.578;2022-08-21T03:27:20;9.20;;;6.53;;
23720;SDS011;42950;52.134;5.578;2022-08-21T03:29:45;9.43;;;6.70;;
23720;SDS011;42950;52.134;5.578;2022-08-21T03:32:11;9.55;;;6.72;;
23720;SDS011;42950;52.134;5.578;2022-08-21T03:34:37;11.60;;;7.03;;
23720;SDS011;42950;52.134;5.578;2022-08-21T03:37:04;8.02;;;6.80;;
23720;SDS011;42950;52.134;5.578;2022-08-21T03:39:31;9.15;;;7.00;;
23720;SDS011;42950;52.134;5.578;2022-08-21T03:41:57;13.98;;;7.90;;
23720;SDS011;42950;52.134;5.578;2022-08-21T03:44:24;9.10;;;7.38;;
23720;SDS011;42950;52.134;5.578;2022-08-21T03:46:53;8.27;;;6.57;;
23720;SDS011;42950;52.134;5.578;2022-08-21T03:49:18;10.57;;;7.10;;
23720;SDS011;42950;52.134;5.578;2022-08-21T03:51:44;13.50;;;7.93;;
23720;SDS011;42950;52.134;5.578;2022-08-21T03:54:09;11.25;;;6.95;;
23720;SDS011;42950;52.134;5.578;2022-08-21T03:56:35;10.30;;;7.38;;
23720;SDS011;42950;52.134;5.578;2022-08-21T03:59:00;11.88;;;7.63;;
23720;SDS011;42950;52.134;5.578;2022-08-21T04:01:27;8.48;;;6.45;;
23720;SDS011;42950;52.134;5.578;2022-08-21T04:03:53;10.85;;;7.25;;
23720;SDS011;42950;52.134;5.578;2022-08-21T04:06:18;12.77;;;8.55;;
23720;SDS011;42950;52.134;5.578;2022-08-21T04:08:44;9.02;;;8.07;;
23720;SDS011;42950;52.134;5.578;2022-08-21T04:11:10;9.15;;;6.60;;
23720;SDS011;42950;52.134;5.578;2022-08-21T04:13:36;9.68;;;6.43;;
23720;SDS011;42950;52.134;5.578;2022-08-21T04:16:02;9.68;;;7.00;;
23720;SDS011;42950;52.134;5.578;2022-08-21T04:18:28;12.73;;;8.13;;
23720;SDS011;42950;52.134;5.578;2022-08-21T04:20:54;16.33;;;7.72;;
23720;SDS011;42950;52.134;5.578;2022-08-21T04:23:22;8.75;;;7.32;;
23720;SDS011;42950;52.134;5.578;2022-08-21T04:25:48;9.57;;;7.35;;
23720;SDS011;42950;52.134;5.578;2022-08-21T04:28:13;11.07;;;7.50;;
23720;SDS011;42950;52.134;5.578;2022-08-21T04:30:39;13.02;;;7.88;;
23720;SDS011;42950;52.134;5.578;2022-08-21T04:33:05;13.38;;;7.85;;
23720;SDS011;42950;52.134;5.578;2022-08-21T04:35:30;11.23;;;8.25;;
23720;SDS011;42950;52.134;5.578;2022-08-21T04:37:56;12.23;;;8.48;;
23720;SDS011;42950;52.134;5.578;2022-08-21T04:40:23;12.70;;;7.70;;
23720;SDS011;42950;52.134;5.578;2022-08-21T04:42:51;10.55;;;7.63;;
23720;SDS011;42950;52.134;5.578;2022-08-21T04:45:21;10.75;;;7.28;;
23720;SDS011;42950;52.134;5.578;2022-08-21T04:47:48;11.48;;;7.60;;
23720;SDS011;42950;52.134;5.578;2022-08-21T04:50:15;11.18;;;7.40;;
23720;SDS011;42950;52.134;5.578;2022-08-21T04:52:41;9.63;;;7.25;;
23720;SDS011;42950;52.134;5.578;2022-08-21T04:55:07;10.73;;;7.50;;
23720;SDS011;42950;52.134;5.578;2022-08-21T04:57:33;8.90;;;7.22;;
23720;SDS011;42950;52.134;5.578;2022-08-21T04:59:59;17.05;;;8.13;;
23720;SDS011;42950;52.134;5.578;2022-08-21T05:02:25;8.95;;;7.18;;
23720;SDS011;42950;52.134;5.578;2022-08-21T05:04:52;13.13;;;7.90;;
23720;SDS011;42950;52.134;5.578;2022-08-21T05:07:20;13.80;;;6.95;;
23720;SDS011;42950;52.134;5.578;2022-08-21T05:09:50;12.80;;;7.93;;
23720;SDS011;42950;52.134;5.578;2022-08-21T05:12:16;12.60;;;7.70;;
23720;SDS011;42950;52.134;5.578;2022-08-21T05:14:42;11.15;;;7.28;;
23720;SDS011;42950;52.134;5.578;2022-08-21T05:17:08;12.55;;;8.00;;
23720;SDS011;42950;52.134;5.578;2022-08-21T05:19:34;13.27;;;8.25;;
23720;SDS011;42950;52.134;5.578;2022-08-21T05:22:00;12.38;;;8.35;;
23720;SDS011;42950;52.134;5.578;2022-08-21T05:24:26;10.95;;;8.35;;
23720;SDS011;42950;52.134;5.578;2022-08-21T05:26:52;12.85;;;7.95;;
23720;SDS011;42950;52.134;5.578;2022-08-21T05:29:18;17.42;;;8.80;;
23720;SDS011;42950;52.134;5.578;2022-08-21T05:31:44;12.75;;;8.07;;
23720;SDS011;42950;52.134;5.578;2022-08-21T05:34:11;9.50;;;7.85;;
23720;SDS011;42950;52.134;5.578;2022-08-21T05:36:38;14.43;;;9.25;;
23720;SDS011;42950;52.134;5.578;2022-08-21T05:39:04;16.83;;;9.00;;
23720;SDS011;42950;52.134;5.578;2022-08-21T05:41:29;12.50;;;8.30;;
23720;SDS011;42950;52.134;5.578;2022-08-21T05:43:55;11.95;;;8.05;;
23720;SDS011;42950;52.134;5.578;2022-08-21T05:46:20;13.35;;;9.10;;
23720;SDS011;42950;52.134;5.578;2022-08-21T05:48:46;16.00;;;8.82;;
23720;SDS011;42950;52.134;5.578;2022-08-21T05:51:13;12.98;;;8.73;;
23720;SDS011;42950;52.134;5.578;2022-08-21T05:53:40;13.60;;;8.90;;
23720;SDS011;42950;52.134;5.578;2022-08-21T05:56:10;13.43;;;9.48;;
23720;SDS011;42950;52.134;5.578;2022-08-21T05:58:36;13.45;;;8.38;;
23720;SDS011;42950;52.134;5.578;2022-08-21T06:01:03;15.98;;;8.43;;
23720;SDS011;42950;52.134;5.578;2022-08-21T06:03:31;14.50;;;9.05;;
23720;SDS011;42950;52.134;5.578;2022-08-21T06:05:59;16.00;;;8.43;;
23720;SDS011;42950;52.134;5.578;2022-08-21T06:08:25;15.50;;;8.95;;
23720;SDS011;42950;52.134;5.578;2022-08-21T06:10:52;16.13;;;8.00;;
23720;SDS011;42950;52.134;5.578;2022-08-21T06:13:20;14.65;;;8.52;;
23720;SDS011;42950;52.134;5.578;2022-08-21T06:15:46;17.17;;;8.00;;
23720;SDS011;42950;52.134;5.578;2022-08-21T06:18:12;19.20;;;8.48;;
23720;SDS011;42950;52.134;5.578;2022-08-21T06:20:40;12.18;;;7.75;;
23720;SDS011;42950;52.134;5.578;2022-08-21T06:23:06;14.98;;;8.50;;
23720;SDS011;42950;52.134;5.578;2022-08-21T06:25:32;17.35;;;8.43;;
23720;SDS011;42950;52.134;5.578;2022-08-21T06:28:04;15.75;;;8.25;;
23720;SDS011;42950;52.134;5.578;2022-08-21T06:30:34;15.65;;;8.45;;
23720;SDS011;42950;52.134;5.578;2022-08-21T06:33:02;13.50;;;8.07;;
23720;SDS011;42950;52.134;5.578;2022-08-21T06:35:28;17.67;;;8.85;;
23720;SDS011;42950;52.134;5.578;2022-08-21T06:37:55;19.65;;;8.65;;
23720;SDS011;42950;52.134;5.578;2022-08-21T06:40:22;13.57;;;8.13;;
23720;SDS011;42950;52.134;5.578;2022-08-21T06:42:47;17.38;;;8.00;;
23720;SDS011;42950;52.134;5.578;2022-08-21T06:45:13;18.98;;;8.82;;
23720;SDS011;42950;52.134;5.578;2022-08-21T06:47:39;16.75;;;8.02;;
23720;SDS011;42950;52.134;5.578;2022-08-21T06:50:05;18.05;;;7.68;;
23720;SDS011;42950;52.134;5.578;2022-08-21T06:52:32;13.10;;;6.93;;
23720;SDS011;42950;52.134;5.578;2022-08-21T06:54:59;13.43;;;7.30;;
23720;SDS011;42950;52.134;5.578;2022-08-21T06:57:25;13.82;;;7.30;;
23720;SDS011;42950;52.134;5.578;2022-08-21T06:59:50;19.10;;;7.63;;
23720;SDS011;42950;52.134;5.578;2022-08-21T07:02:16;13.10;;;7.50;;
23720;SDS011;42950;52.134;5.578;2022-08-21T07:04:42;16.35;;;7.47;;
23720;SDS011;42950;52.134;5.578;2022-08-21T07:07:07;20.75;;;7.70;;
23720;SDS011;42950;52.134;5.578;2022-08-21T07:09:33;13.82;;;6.97;;
23720;SDS011;42950;52.134;5.578;2022-08-21T07:11:59;15.93;;;7.78;;
23720;SDS011;42950;52.134;5.578;2022-08-21T07:14:25;15.13;;;7.55;;
23720;SDS011;42950;52.134;5.578;2022-08-21T07:16:50;16.65;;;7.88;;
23720;SDS011;42950;52.134;5.578;2022-08-21T07:19:16;17.88;;;7.50;;
23720;SDS011;42950;52.134;5.578;2022-08-21T07:21:42;15.10;;;7.88;;
23720;SDS011;42950;52.134;5.578;2022-08-21T07:24:08;20.85;;;7.35;;
23720;SDS011;42950;52.134;5.578;2022-08-21T07:26:34;14.30;;;7.60;;
23720;SDS011;42950;52.134;5.578;2022-08-21T07:29:00;18.75;;;8.13;;
23720;SDS011;42950;52.134;5.578;2022-08-21T07:31:26;15.35;;;7.55;;
23720;SDS011;42950;52.134;5.578;2022-08-21T07:33:53;18.27;;;7.55;;
23720;SDS011;42950;52.134;5.578;2022-08-21T07:36:19;17.85;;;7.25;;
23720;SDS011;42950;52.134;5.578;2022-08-21T07:38:44;19.38;;;7.43;;
23720;SDS011;42950;52.134;5.578;2022-08-21T07:41:17;19.20;;;7.32;;
23720;SDS011;42950;52.134;5.578;2022-08-21T07:43:45;15.52;;;6.90;;
23720;SDS011;42950;52.134;5.578;2022-08-21T07:46:11;13.57;;;7.00;;
23720;SDS011;42950;52.134;5.578;2022-08-21T07:48:37;14.20;;;6.97;;
23720;SDS011;42950;52.134;5.578;2022-08-21T07:51:06;18.23;;;7.00;;
23720;SDS011;42950;52.134;5.578;2022-08-21T07:53:34;17.27;;;7.05;;
23720;SDS011;42950;52.134;5.578;2022-08-21T07:56:01;17.15;;;6.80;;
23720;SDS011;42950;52.134;5.578;2022-08-21T07:58:27;14.10;;;6.55;;
23720;SDS011;42950;52.134;5.578;2022-08-21T08:00:52;19.15;;;7.28;;
23720;SDS011;42950;52.134;5.578;2022-08-21T08:03:18;18.02;;;7.32;;
23720;SDS011;42950;52.134;5.578;2022-08-21T08:05:44;19.05;;;7.43;;
23720;SDS011;42950;52.134;5.578;2022-08-21T08:08:09;15.50;;;6.97;;
23720;SDS011;42950;52.134;5.578;2022-08-21T08:10:35;16.52;;;7.00;;
23720;SDS011;42950;52.134;5.578;2022-08-21T08:13:02;21.83;;;7.30;;
23720;SDS011;42950;52.134;5.578;2022-08-21T08:15:27;13.07;;;6.18;;
23720;SDS011;42950;52.134;5.578;2022-08-21T08:17:53;20.00;;;7.20;;
23720;SDS011;42950;52.134;5.578;2022-08-21T08:20:20;14.75;;;6.00;;
23720;SDS011;42950;52.134;5.578;2022-08-21T08:22:47;17.95;;;6.55;;
23720;SDS011;42950;52.134;5.578;2022-08-21T08:25:14;18.33;;;5.85;;
23720;SDS011;42950;52.134;5.578;2022-08-21T08:27:40;15.18;;;6.20;;
23720;SDS011;42950;52.134;5.578;2022-08-21T08:30:07;16.45;;;6.00;;
23720;SDS011;42950;52.134;5.578;2022-08-21T08:32:34;18.60;;;6.72;;
23720;SDS011;42950;52.134;5.578;2022-08-21T08:35:01;16.75;;;6.00;;
23720;SDS011;42950;52.134;5.578;2022-08-21T08:37:27;13.60;;;5.47;;
23720;SDS011;42950;52.134;5.578;2022-08-21T08:39:52;20.60;;;5.90;;
23720;SDS011;42950;52.134;5.578;2022-08-21T08:42:20;16.10;;;5.55;;
23720;SDS011;42950;52.134;5.578;2022-08-21T08:44:55;15.20;;;5.65;;
23720;SDS011;42950;52.134;5.578;2022-08-21T08:47:25;13.27;;;4.68;;
23720;SDS011;42950;52.134;5.578;2022-08-21T08:54:49;13.93;;;5.28;;
23720;SDS011;42950;52.134;5.578;2022-08-21T08:57:25;13.63;;;4.53;;
23720;SDS011;42950;52.134;5.578;2022-08-21T08:59:52;14.77;;;4.88;;
23720;SDS011;42950;52.134;5.578;2022-08-21T09:02:21;13.77;;;3.95;;
23720;SDS011;42950;52.134;5.578;2022-08-21T09:04:48;14.40;;;4.25;;
23720;SDS011;42950;52.134;5.578;2022-08-21T09:12:33;13.30;;;4.30;;
23720;SDS011;42950;52.134;5.578;2022-08-21T09:18:10;14.68;;;3.50;;
23720;SDS011;42950;52.134;5.578;2022-08-21T09:20:57;8.80;;;3.13;;
23720;SDS011;42950;52.134;5.578;2022-08-21T09:26:25;13.98;;;3.60;;
23720;SDS011;42950;52.134;5.578;2022-08-21T09:28:58;12.38;;;3.55;;
23720;SDS011;42950;52.134;5.578;2022-08-21T09:33:59;10.85;;;2.95;;
23720;SDS011;42950;52.134;5.578;2022-08-21T09:36:45;10.25;;;2.92;;
23720;SDS011;42950;52.134;5.578;2022-08-21T09:39:22;11.40;;;3.58;;
23720;SDS011;42950;52.134;5.578;2022-08-21T09:42:00;12.52;;;3.40;;
23720;SDS011;42950;52.134;5.578;2022-08-21T09:44:28;9.80;;;3.45;;
23720;SDS011;42950;52.134;5.578;2022-08-21T09:46:57;12.63;;;2.85;;
23720;SDS011;42950;52.134;5.578;2022-08-21T09:49:26;8.52;;;2.72;;
23720;SDS011;42950;52.134;5.578;2022-08-21T09:51:53;8.88;;;2.72;;
23720;SDS011;42950;52.134;5.578;2022-08-21T09:54:19;9.05;;;2.45;;
23720;SDS011;42950;52.134;5.578;2022-08-21T09:56:55;9.73;;;2.72;;
23720;SDS011;42950;52.134;5.578;2022-08-21T10:00:16;10.73;;;2.55;;
23720;SDS011;42950;52.134;5.578;2022-08-21T10:02:49;9.20;;;2.20;;
23720;SDS011;42950;52.134;5.578;2022-08-21T10:05:19;8.45;;;2.70;;
23720;SDS011;42950;52.134;5.578;2022-08-21T10:07:47;7.28;;;2.38;;
23720;SDS011;42950;52.134;5.578;2022-08-21T10:15:31;14.48;;;3.40;;
23720;SDS011;42950;52.134;5.578;2022-08-21T10:21:10;11.05;;;2.85;;
23720;SDS011;42950;52.134;5.578;2022-08-21T10:26:49;11.77;;;2.50;;
23720;SDS011;42950;52.134;5.578;2022-08-21T10:31:56;12.35;;;2.60;;
23720;SDS011;42950;52.134;5.578;2022-08-21T10:34:47;10.38;;;2.53;;
23720;SDS011;42950;52.134;5.578;2022-08-21T10:40:15;9.55;;;2.38;;
23720;SDS011;42950;52.134;5.578;2022-08-21T10:45:52;8.07;;;2.60;;
23720;SDS011;42950;52.134;5.578;2022-08-21T10:48:28;9.95;;;2.42;;
23720;SDS011;42950;52.134;5.578;2022-08-21T10:51:03;7.90;;;1.83;;
23720;SDS011;42950;52.134;5.578;2022-08-21T10:56:40;10.95;;;2.22;;
23720;SDS011;42950;52.134;5.578;2022-08-21T11:01:44;7.78;;;2.20;;
23720;SDS011;42950;52.134;5.578;2022-08-21T11:04:20;11.32;;;1.70;;
23720;SDS011;42950;52.134;5.578;2022-08-21T11:07:51;10.73;;;1.85;;
23720;SDS011;42950;52.134;5.578;2022-08-21T11:10:10;8.88;;;1.90;;
23720;SDS011;42950;52.134;5.578;2022-08-21T11:12:43;8.23;;;1.90;;
23720;SDS011;42950;52.134;5.578;2022-08-21T11:15:27;9.18;;;2.42;;
23720;SDS011;42950;52.134;5.578;2022-08-21T11:18:30;6.68;;;1.85;;
23720;SDS011;42950;52.134;5.578;2022-08-21T11:21:01;8.00;;;1.83;;
23720;SDS011;42950;52.134;5.578;2022-08-21T11:23:29;7.57;;;2.00;;
23720;SDS011;42950;52.134;5.578;2022-08-21T11:27:18;7.80;;;2.00;;
23720;SDS011;42950;52.134;5.578;2022-08-21T11:29:38;8.32;;;1.98;;
23720;SDS011;42950;52.134;5.578;2022-08-21T11:43:21;7.53;;;2.00;;
23720;SDS011;42950;52.134;5.578;2022-08-21T11:46:25;5.60;;;1.85;;
23720;SDS011;42950;52.134;5.578;2022-08-21T11:51:32;7.55;;;1.67;;
23720;SDS011;42950;52.134;5.578;2022-08-21T11:54:06;12.73;;;1.85;;
23720;SDS011;42950;52.134;5.578;2022-08-21T11:56:44;8.50;;;1.95;;
23720;SDS011;42950;52.134;5.578;2022-08-21T11:59:17;10.43;;;1.88;;
23720;SDS011;42950;52.134;5.578;2022-08-21T12:02:02;4.55;;;1.60;;
23720;SDS011;42950;52.134;5.578;2022-08-21T12:04:42;10.27;;;2.17;;
23720;SDS011;42950;52.134;5.578;2022-08-21T12:07:15;8.93;;;2.20;;
23720;SDS011;42950;52.134;5.578;2022-08-21T12:09:53;7.32;;;1.60;;
23720;SDS011;42950;52.134;5.578;2022-08-21T12:15:30;6.70;;;1.70;;
23720;SDS011;42950;52.134;5.578;2022-08-21T12:22:54;6.40;;;2.00;;
23720;SDS011;42950;52.134;5.578;2022-08-21T12:25:36;7.63;;;1.50;;
23720;SDS011;42950;52.134;5.578;2022-08-21T12:28:23;5.40;;;1.67;;
23720;SDS011;42950;52.134;5.578;2022-08-21T12:30:50;6.68;;;1.45;;
23720;SDS011;42950;52.134;5.578;2022-08-21T12:35:53;6.85;;;1.70;;
23720;SDS011;42950;52.134;5.578;2022-08-21T12:38:51;5.85;;;1.75;;
23720;SDS011;42950;52.134;5.578;2022-08-21T12:41:26;8.75;;;1.58;;
23720;SDS011;42950;52.134;5.578;2022-08-21T12:44:09;5.38;;;1.70;;
23720;SDS011;42950;52.134;5.578;2022-08-21T12:46:53;6.50;;;1.88;;
23720;SDS011;42950;52.134;5.578;2022-08-21T12:49:33;8.68;;;2.30;;
23720;SDS011;42950;52.134;5.578;2022-08-21T12:54:39;9.93;;;2.20;;
23720;SDS011;42950;52.134;5.578;2022-08-21T12:57:07;8.77;;;2.00;;
23720;SDS011;42950;52.134;5.578;2022-08-21T12:59:37;6.18;;;2.17;;
23720;SDS011;42950;52.134;5.578;2022-08-21T13:02:07;8.93;;;1.95;;
23720;SDS011;42950;52.134;5.578;2022-08-21T13:04:44;7.78;;;2.20;;
23720;SDS011;42950;52.134;5.578;2022-08-21T13:07:13;5.78;;;1.80;;
23720;SDS011;42950;52.134;5.578;2022-08-21T13:09:46;8.25;;;2.00;;
23720;SDS011;42950;52.134;5.578;2022-08-21T13:12:18;5.35;;;1.67;;
23720;SDS011;42950;52.134;5.578;2022-08-21T13:14:46;7.45;;;1.90;;
23720;SDS011;42950;52.134;5.578;2022-08-21T13:17:14;7.95;;;2.25;;
23720;SDS011;42950;52.134;5.578;2022-08-21T13:22:44;4.75;;;1.23;;
23720;SDS011;42950;52.134;5.578;2022-08-21T13:25:13;6.15;;;1.70;;
23720;SDS011;42950;52.134;5.578;2022-08-21T13:27:40;7.85;;;1.98;;
23720;SDS011;42950;52.134;5.578;2022-08-21T13:30:20;6.75;;;1.50;;
23720;SDS011;42950;52.134;5.578;2022-08-21T13:32:48;6.22;;;1.40;;
23720;SDS011;42950;52.134;5.578;2022-08-21T13:37:45;8.23;;;1.80;;
23720;SDS011;42950;52.134;5.578;2022-08-21T13:40:14;7.35;;;1.40;;
23720;SDS011;42950;52.134;5.578;2022-08-21T13:42:44;5.05;;;1.60;;
23720;SDS011;42950;52.134;5.578;2022-08-21T13:45:22;6.57;;;1.70;;
23720;SDS011;42950;52.134;5.578;2022-08-21T13:47:49;5.72;;;1.50;;
23720;SDS011;42950;52.134;5.578;2022-08-21T13:50:16;4.28;;;1.42;;
23720;SDS011;42950;52.134;5.578;2022-08-21T13:52:54;6.25;;;1.60;;
23720;SDS011;42950;52.134;5.578;2022-08-21T13:55:22;3.90;;;1.40;;
23720;SDS011;42950;52.134;5.578;2022-08-21T13:57:58;7.63;;;1.60;;
23720;SDS011;42950;52.134;5.578;2022-08-21T14:00:26;6.72;;;1.23;;
23720;SDS011;42950;52.134;5.578;2022-08-21T14:02:53;6.68;;;1.65;;
23720;SDS011;42950;52.134;5.578;2022-08-21T14:05:28;8.48;;;1.75;;
23720;SDS011;42950;52.134;5.578;2022-08-21T14:08:01;7.20;;;2.00;;
23720;SDS011;42950;52.134;5.578;2022-08-21T14:10:58;6.78;;;1.63;;
23720;SDS011;42950;52.134;5.578;2022-08-21T14:13:33;7.18;;;1.92;;
23720;SDS011;42950;52.134;5.578;2022-08-21T14:21:12;4.82;;;1.50;;
23720;SDS011;42950;52.134;5.578;2022-08-21T14:23:38;7.18;;;1.90;;
23720;SDS011;42950;52.134;5.578;2022-08-21T14:26:05;6.95;;;1.90;;
23720;SDS011;42950;52.134;5.578;2022-08-21T14:28:42;8.27;;;1.80;;
23720;SDS011;42950;52.134;5.578;2022-08-21T14:31:13;5.78;;;1.73;;
23720;SDS011;42950;52.134;5.578;2022-08-21T14:33:40;5.80;;;1.50;;
23720;SDS011;42950;52.134;5.578;2022-08-21T14:36:06;8.20;;;2.17;;
23720;SDS011;42950;52.134;5.578;2022-08-21T14:38:34;7.53;;;2.13;;
23720;SDS011;42950;52.134;5.578;2022-08-21T14:41:10;6.55;;;2.05;;
23720;SDS011;42950;52.134;5.578;2022-08-21T14:43:42;9.98;;;2.08;;
23720;SDS011;42950;52.134;5.578;2022-08-21T14:46:09;9.35;;;1.90;;
23720;SDS011;42950;52.134;5.578;2022-08-21T14:48:35;4.60;;;1.77;;
23720;SDS011;42950;52.134;5.578;2022-08-21T14:51:01;8.48;;;1.90;;
23720;SDS011;42950;52.134;5.578;2022-08-21T14:53:26;7.65;;;1.83;;
23720;SDS011;42950;52.134;5.578;2022-08-21T14:55:53;8.80;;;2.03;;
23720;SDS011;42950;52.134;5.578;2022-08-21T14:58:31;7.15;;;2.13;;
23720;SDS011;42950;52.134;5.578;2022-08-21T15:00:57;6.97;;;2.25;;
23720;SDS011;42950;52.134;5.578;2022-08-21T15:03:23;8.60;;;1.95;;
23720;SDS011;42950;52.134;5.578;2022-08-21T15:05:49;10.38;;;2.30;;
23720;SDS011;42950;52.134;5.578;2022-08-21T15:08:16;7.22;;;2.13;;
23720;SDS011;42950;52.134;5.578;2022-08-21T15:10:42;9.77;;;2.10;;
23720;SDS011;42950;52.134;5.578;2022-08-21T15:13:08;7.40;;;2.08;;
23720;SDS011;42950;52.134;5.578;2022-08-21T15:15:44;9.40;;;1.70;;
23720;SDS011;42950;52.134;5.578;2022-08-21T15:18:12;6.15;;;1.98;;
23720;SDS011;42950;52.134;5.578;2022-08-21T15:20:38;6.30;;;2.00;;
23720;SDS011;42950;52.134;5.578;2022-08-21T15:23:04;6.75;;;1.80;;
23720;SDS011;42950;52.134;5.578;2022-08-21T15:25:32;8.57;;;2.22;;
23720;SDS011;42950;52.134;5.578;2022-08-21T15:27:58;5.70;;;1.80;;
23720;SDS011;42950;52.134;5.578;2022-08-21T15:30:24;7.50;;;1.77;;
23720;SDS011;42950;52.134;5.578;2022-08-21T15:32:50;11.40;;;2.05;;
23720;SDS011;42950;52.134;5.578;2022-08-21T15:35:16;6.25;;;1.88;;
23720;SDS011;42950;52.134;5.578;2022-08-21T15:37:42;6.47;;;1.90;;
23720;SDS011;42950;52.134;5.578;2022-08-21T15:40:08;8.68;;;2.30;;
23720;SDS011;42950;52.134;5.578;2022-08-21T15:42:34;5.35;;;1.80;;
23720;SDS011;42950;52.134;5.578;2022-08-21T15:45:03;9.02;;;2.40;;
23720;SDS011;42950;52.134;5.578;2022-08-21T15:47:30;6.57;;;1.98;;
23720;SDS011;42950;52.134;5.578;2022-08-21T15:49:58;6.40;;;2.10;;
23720;SDS011;42950;52.134;5.578;2022-08-21T15:52:24;7.45;;;1.80;;
23720;SDS011;42950;52.134;5.578;2022-08-21T15:54:50;8.57;;;2.00;;
23720;SDS011;42950;52.134;5.578;2022-08-21T15:57:17;7.32;;;1.88;;
23720;SDS011;42950;52.134;5.578;2022-08-21T15:59:46;7.68;;;1.80;;
23720;SDS011;42950;52.134;5.578;2022-08-21T16:02:24;6.78;;;1.95;;
23720;SDS011;42950;52.134;5.578;2022-08-21T16:04:53;6.68;;;1.83;;
23720;SDS011;42950;52.134;5.578;2022-08-21T16:07:19;7.45;;;2.13;;
23720;SDS011;42950;52.134;5.578;2022-08-21T16:09:45;9.00;;;2.08;;
23720;SDS011;42950;52.134;5.578;2022-08-21T16:12:13;6.47;;;1.90;;
23720;SDS011;42950;52.134;5.578;2022-08-21T16:14:47;4.22;;;1.60;;
23720;SDS011;42950;52.134;5.578;2022-08-21T16:17:14;9.18;;;1.95;;